Linthwaite, United Kingdom
Current Conditions -  °F | °C
As of 6:50 AM on Friday 19 Dec 2014 (Local Time) from EGNM Reporting Station
Clear Clear  
Wind Chill: 31°   Ceiling: Unl
Heat Index: 41°   Visibility: 6mi
Dew Point: 36°   Wind: 23mph
Humidity: 81%   Direction: 270°W
Pressure: 29.68"   Gusts: NA
Location:  53.62°N, 1.85°W
Report Text: EGNM 190650Z 27020KT 230V290 CAVOK 05/02 Q1005
Loading
Personal Weather Stations






























Interactive Weather Map New forecast layout! Learn more

10-Day Weather Forecast

Advertisements
Track Severe Weather on mobile